Time;durP1;ratioP1;P1;durP2;ratioP2;P2;SDS_P1;SDS_P2;PMS_P1;PMS_P2;Temp;Humidity;BMP_temperature;BMP_pressure;BME280_temperature;BME280_humidity;BME280_pressure;Samples;Min_cycle;Max_cycle;Signal;HPM_P1;HPM_P2
2022/01/02 00:01:03;;;;;;;2.88;1.77;;;-7.30;99.90;;;;;;5032988;28;20548;-77
2022/01/02 00:03:52;;;;;;;3.28;1.70;;;-7.40;99.90;;;;;;5046268;28;20073;-78
2022/01/02 00:06:46;;;;;;;4.03;1.38;;;-7.40;99.90;;;;;;5032233;28;20060;-79
2022/01/02 00:09:36;;;;;;;3.85;1.60;;;-7.50;99.90;;;;;;5046516;28;20199;-78
2022/01/02 00:12:25;;;;;;;3.38;1.60;;;-7.50;99.90;;;;;;5033292;28;20426;-78
2022/01/02 00:15:13;;;;;;;1.77;1.40;;;-7.50;99.90;;;;;;5032905;28;20551;-78
2022/01/02 00:18:06;;;;;;;2.38;1.70;;;-7.60;99.90;;;;;;5060081;28;20603;-79
2022/01/02 00:20:56;;;;;;;4.15;1.70;;;-7.60;99.90;;;;;;5037855;28;20528;-78
2022/01/02 00:23:57;;;;;;;5.07;1.75;;;-7.70;99.90;;;;;;5032375;28;20052;-78
2022/01/02 00:26:48;;;;;;;3.78;1.40;;;-7.70;99.90;;;;;;5032885;28;20083;-78
2022/01/02 00:29:36;;;;;;;3.83;1.58;;;-7.70;99.90;;;;;;5046886;28;20053;-78
2022/01/02 00:32:22;;;;;;;4.25;1.95;;;-7.70;99.90;;;;;;5059714;28;20425;-81
2022/01/02 00:35:09;;;;;;;1.90;1.30;;;-7.70;99.90;;;;;;5032502;28;20169;-83
2022/01/02 00:37:55;;;;;;;3.30;1.70;;;-7.70;99.90;;;;;;5032527;28;20572;-79
2022/01/02 00:40:45;;;;;;;3.08;2.03;;;-7.70;99.90;;;;;;5032242;28;20056;-80
2022/01/02 00:43:47;;;;;;;3.53;1.73;;;-7.70;99.90;;;;;;5032483;28;20186;-80
2022/01/02 00:46:35;;;;;;;5.47;1.85;;;-7.70;99.90;;;;;;5045118;28;20060;-79
2022/01/02 00:49:26;;;;;;;5.90;1.83;;;-7.70;99.90;;;;;;5031962;28;20056;-75
2022/01/02 00:52:17;;;;;;;2.03;1.40;;;-7.70;99.90;;;;;;5032142;28;20052;-75
2022/01/02 00:55:06;;;;;;;3.55;1.85;;;-7.70;99.90;;;;;;5059318;28;20087;-76
2022/01/02 00:57:59;;;;;;;2.65;1.30;;;-7.80;99.90;;;;;;5031477;28;20056;-74
2022/01/02 01:00:51;;;;;;;3.53;1.65;;;-7.80;99.90;;;;;;5045099;28;20055;-75
2022/01/02 01:03:41;;;;;;;2.80;1.25;;;-7.70;99.90;;;;;;5059269;28;20055;-75
2022/01/02 01:06:33;;;;;;;3.58;1.48;;;-7.70;99.90;;;;;;5031937;28;20119;-75
2022/01/02 01:09:21;;;;;;;8.75;4.00;;;-7.70;99.90;;;;;;5043381;28;20556;-76
2022/01/02 01:12:10;;;;;;;5.65;2.53;;;-7.80;99.90;;;;;;5039187;28;20208;-76
2022/01/02 01:14:57;;;;;;;4.45;2.15;;;-7.80;99.90;;;;;;5030095;28;20187;-75
2022/01/02 01:17:44;;;;;;;3.90;1.50;;;-7.80;99.90;;;;;;5059327;28;20058;-75
2022/01/02 01:20:37;;;;;;;3.60;1.58;;;-7.80;99.90;;;;;;5031522;28;20056;-76
2022/01/02 01:23:23;;;;;;;5.97;1.33;;;-7.80;99.90;;;;;;5044582;28;20140;-76
2022/01/02 01:26:11;;;;;;;2.63;1.52;;;-7.80;99.90;;;;;;5025048;28;20168;-76
2022/01/02 01:28:57;;;;;;;4.32;1.67;;;-7.80;99.90;;;;;;5028371;28;20196;-77
2022/01/02 01:31:44;;;;;;;5.93;1.85;;;-7.80;99.90;;;;;;5017867;28;20052;-75
2022/01/02 01:34:33;;;;;;;3.95;1.88;;;-7.80;99.90;;;;;;5023919;28;20069;-76
2022/01/02 01:37:19;;;;;;;1.45;1.23;;;-7.80;99.90;;;;;;5016704;28;20428;-76
2022/01/02 01:40:08;;;;;;;2.97;1.33;;;-7.90;99.90;;;;;;5031529;28;20103;-76
2022/01/02 01:42:58;;;;;;;2.20;1.70;;;-7.90;99.90;;;;;;5044330;28;20056;-76
2022/01/02 01:45:47;;;;;;;2.47;1.40;;;-7.90;99.90;;;;;;5058435;28;20059;-76
2022/01/02 01:48:34;;;;;;;4.57;1.60;;;-7.90;99.90;;;;;;5030819;28;20063;-76
2022/01/02 01:51:23;;;;;;;6.03;1.95;;;-7.90;99.90;;;;;;5029613;28;20183;-75
2022/01/02 01:54:10;;;;;;;6.82;2.15;;;-7.90;99.90;;;;;;5027618;28;20521;-76
2022/01/02 01:56:56;;;;;;;5.00;1.88;;;-7.90;99.90;;;;;;5044428;28;20059;-76
2022/01/02 01:59:48;;;;;;;5.50;1.70;;;-7.90;99.90;;;;;;5058376;28;20144;-76
2022/01/02 02:02:35;;;;;;;4.53;2.17;;;-7.90;99.90;;;;;;5040156;28;20073;-76
2022/01/02 02:05:21;;;;;;;5.70;2.60;;;-7.90;99.90;;;;;;5028979;28;20061;-75
2022/01/02 02:08:10;;;;;;;3.50;2.08;;;-7.90;99.90;;;;;;5057480;28;20056;-75
2022/01/02 02:10:57;;;;;;;3.53;1.77;;;-7.90;99.90;;;;;;5029296;28;20061;-76
2022/01/02 02:13:46;;;;;;;7.95;2.60;;;-7.90;99.90;;;;;;5058140;28;20134;-75
2022/01/02 02:16:34;;;;;;;6.95;3.20;;;-8.00;99.90;;;;;;5023129;28;20426;-76
2022/01/02 02:19:21;;;;;;;10.70;2.70;;;-8.00;99.90;;;;;;5042512;28;20045;-76
2022/01/02 02:22:09;;;;;;;6.00;2.00;;;-8.00;99.90;;;;;;5037849;28;20048;-75
2022/01/02 02:24:55;;;;;;;5.40;2.03;;;-8.00;99.90;;;;;;5040124;28;20196;-76
2022/01/02 02:27:41;;;;;;;5.03;2.13;;;-8.00;99.90;;;;;;5018767;28;20520;-76
2022/01/02 02:30:30;;;;;;;3.80;1.80;;;-8.00;99.90;;;;;;5030566;28;20100;-75
2022/01/02 02:33:17;;;;;;;3.67;1.58;;;-8.00;99.90;;;;;;5030404;28;20060;-75
2022/01/02 02:36:04;;;;;;;3.35;1.45;;;-8.00;99.90;;;;;;5043922;28;20059;-75
2022/01/02 02:38:52;;;;;;;2.90;1.70;;;-8.00;99.90;;;;;;5057278;28;20195;-75
2022/01/02 02:41:41;;;;;;;5.45;1.85;;;-8.10;99.90;;;;;;5057734;28;20064;-75
2022/01/02 02:44:36;;;;;;;5.22;2.38;;;-8.10;99.90;;;;;;5029504;28;20053;-75
2022/01/02 02:50:27;;;;;;;2.83;1.20;;;-8.10;99.90;;;;;;5029367;28;20484;-75
2022/01/02 02:53:14;;;;;;;2.85;1.48;;;-8.10;99.90;;;;;;5043483;28;20065;-75
2022/01/02 02:56:03;;;;;;;2.92;1.75;;;-8.10;99.90;;;;;;5029327;28;20057;-75
2022/01/02 02:58:51;;;;;;;5.05;2.00;;;-8.10;99.90;;;;;;5015472;28;20553;-74
2022/01/02 03:01:40;;;;;;;3.00;1.50;;;-8.10;99.90;;;;;;5057315;28;20175;-75
2022/01/02 03:04:27;;;;;;;7.28;2.53;;;-8.20;99.90;;;;;;5043369;28;20045;-75
2022/01/02 03:07:13;;;;;;;4.88;2.58;;;-8.20;99.90;;;;;;5037912;28;20135;-75
2022/01/02 03:10:02;;;;;;;4.68;2.53;;;-8.20;99.90;;;;;;5043408;28;20060;-75
2022/01/02 03:12:49;;;;;;;3.75;2.30;;;-8.20;99.90;;;;;;5029414;28;20048;-75
2022/01/02 03:15:36;;;;;;;4.55;2.35;;;-8.30;99.90;;;;;;5043300;28;20060;-75
2022/01/02 03:18:22;;;;;;;2.15;1.63;;;-8.30;99.90;;;;;;5029837;28;20060;-74
2022/01/02 03:21:08;;;;;;;3.63;1.83;;;-8.30;99.90;;;;;;5029636;28;20406;-75
2022/01/02 03:23:55;;;;;;;2.00;1.15;;;-8.30;99.90;;;;;;5047360;28;20073;-74
2022/01/02 03:26:41;;;;;;;3.80;1.85;;;-8.30;99.90;;;;;;5061059;28;20146;-75
2022/01/02 03:29:28;;;;;;;4.32;1.95;;;-8.30;99.90;;;;;;5061156;28;20057;-75
2022/01/02 03:32:14;;;;;;;3.63;1.55;;;-8.40;99.90;;;;;;5061344;28;20040;-79
2022/01/02 03:35:00;;;;;;;2.60;2.00;;;-8.40;99.90;;;;;;5046746;28;20106;-76
2022/01/02 03:37:46;;;;;;;3.08;1.55;;;-8.30;99.90;;;;;;5061099;28;20068;-77
2022/01/02 03:40:34;;;;;;;3.47;2.28;;;-8.30;99.90;;;;;;5060301;28;20102;-77
2022/01/02 03:43:19;;;;;;;4.50;2.15;;;-8.30;99.90;;;;;;5060692;28;20083;-78
2022/01/02 03:46:07;;;;;;;2.95;2.13;;;-8.30;99.90;;;;;;5046006;28;20127;-77
2022/01/02 03:48:54;;;;;;;5.97;1.50;;;-8.30;99.90;;;;;;5046534;28;20095;-77
2022/01/02 03:51:41;;;;;;;6.35;2.63;;;-8.30;99.90;;;;;;5033282;28;20060;-77
2022/01/02 03:54:26;;;;;;;6.97;2.42;;;-8.30;99.90;;;;;;5033518;28;20572;-78
2022/01/02 03:57:13;;;;;;;6.32;3.22;;;-8.30;99.90;;;;;;5059807;28;20536;-78
2022/01/02 03:59:59;;;;;;;3.47;2.45;;;-8.30;99.90;;;;;;5033859;28;20060;-79
2022/01/02 04:02:47;;;;;;;6.93;1.98;;;-8.30;99.90;;;;;;5060379;28;20048;-77
2022/01/02 04:05:33;;;;;;;7.60;2.00;;;-8.30;99.90;;;;;;5046024;28;20147;-77
2022/01/02 04:08:19;;;;;;;3.95;2.20;;;-8.30;99.90;;;;;;5032845;28;20052;-78
2022/01/02 04:11:05;;;;;;;4.43;1.83;;;-8.40;99.90;;;;;;5031462;28;20184;-78
2022/01/02 04:13:51;;;;;;;2.58;1.75;;;-8.40;99.90;;;;;;5059939;28;20065;-78
2022/01/02 04:16:37;;;;;;;3.53;1.85;;;-8.40;99.90;;;;;;5033266;28;20111;-78
2022/01/02 04:19:25;;;;;;;3.63;1.88;;;-8.40;99.90;;;;;;5060249;28;20067;-78
2022/01/02 04:22:11;;;;;;;3.75;1.80;;;-8.40;99.90;;;;;;5045764;28;20064;-78
2022/01/02 04:24:57;;;;;;;3.78;1.85;;;-8.40;99.90;;;;;;5032823;28;20624;-77
2022/01/02 04:27:43;;;;;;;4.97;2.05;;;-8.40;99.90;;;;;;5045246;28;20564;-76
2022/01/02 04:30:29;;;;;;;2.80;1.60;;;-8.40;99.90;;;;;;5059712;28;20048;-77
2022/01/02 04:33:15;;;;;;;2.55;1.80;;;-8.40;99.90;;;;;;5032730;28;20131;-77
2022/01/02 04:36:04;;;;;;;4.40;2.08;;;-8.40;99.90;;;;;;5057416;28;20048;-74
2022/01/02 04:38:50;;;;;;;7.45;2.75;;;-8.40;99.90;;;;;;5060180;28;20179;-74
2022/01/02 04:41:37;;;;;;;4.68;2.88;;;-8.40;99.90;;;;;;5059467;28;20566;-77
2022/01/02 04:44:22;;;;;;;7.68;3.20;;;-8.40;99.90;;;;;;5032702;28;20061;-76
2022/01/02 04:47:09;;;;;;;2.28;1.70;;;-8.40;99.90;;;;;;5058993;28;20147;-76
2022/01/02 04:49:55;;;;;;;3.75;1.60;;;-8.30;99.90;;;;;;5031724;28;20055;-77
2022/01/02 04:52:43;;;;;;;4.50;2.20;;;-8.30;99.90;;;;;;5059503;28;20096;-78
2022/01/02 04:55:29;;;;;;;4.22;1.73;;;-8.30;99.90;;;;;;5044949;28;20060;-77
2022/01/02 04:58:17;;;;;;;1.88;1.55;;;-8.30;99.90;;;;;;5044490;28;20476;-77
2022/01/02 05:01:03;;;;;;;3.92;1.63;;;-8.30;99.90;;;;;;5058566;28;20064;-77
2022/01/02 05:03:50;;;;;;;2.10;1.65;;;-8.20;99.90;;;;;;5031395;28;20061;-78
2022/01/02 05:06:36;;;;;;;5.10;2.03;;;-8.20;99.90;;;;;;5018344;28;20430;-78
2022/01/02 05:09:25;;;;;;;6.90;2.03;;;-8.20;99.90;;;;;;5058948;28;20071;-76
2022/01/02 05:12:11;;;;;;;6.00;2.72;;;-8.20;99.90;;;;;;5058935;28;20417;-78
2022/01/02 05:14:58;;;;;;;5.45;3.30;;;-8.20;99.90;;;;;;5058697;28;20064;-78
2022/01/02 05:17:45;;;;;;;9.18;3.03;;;-8.30;99.90;;;;;;5059153;28;20312;-77
2022/01/02 05:20:31;;;;;;;6.28;2.53;;;-8.30;99.90;;;;;;5031135;28;20053;-78
2022/01/02 05:23:18;;;;;;;5.32;1.70;;;-8.30;99.90;;;;;;5032038;28;20080;-78
2022/01/02 05:26:06;;;;;;;4.20;1.52;;;-8.30;99.90;;;;;;5057986;28;20540;-79
2022/01/02 05:28:52;;;;;;;2.00;1.50;;;-8.30;99.90;;;;;;5058931;28;20064;-78
2022/01/02 05:31:39;;;;;;;4.38;1.55;;;-8.30;99.90;;;;;;5058736;28;20052;-78
2022/01/02 05:34:25;;;;;;;4.57;1.70;;;-8.30;99.90;;;;;;5032002;28;20557;-78
2022/01/02 05:37:12;;;;;;;7.03;2.08;;;-8.30;99.90;;;;;;5044160;28;20056;-77
2022/01/02 05:39:58;;;;;;;6.13;2.25;;;-8.40;99.90;;;;;;5057757;28;20052;-78
2022/01/02 05:42:46;;;;;;;4.72;1.70;;;-8.30;99.90;;;;;;5044100;28;20536;-78
2022/01/02 05:45:33;;;;;;;1.80;1.55;;;-8.30;99.90;;;;;;5030222;28;20052;-77
2022/01/02 05:48:20;;;;;;;4.55;1.95;;;-8.30;99.90;;;;;;5058343;28;20069;-78
2022/01/02 05:51:07;;;;;;;4.53;2.30;;;-8.20;99.90;;;;;;5058484;28;20047;-78
2022/01/02 05:53:55;;;;;;;7.47;3.03;;;-8.20;99.90;;;;;;5034870;28;20059;-78
2022/01/02 05:56:41;;;;;;;5.45;2.78;;;-8.10;99.90;;;;;;5031149;28;20458;-78
2022/01/02 05:59:29;;;;;;;5.80;2.10;;;-8.10;99.90;;;;;;5031137;28;20048;-75
2022/01/02 06:02:15;;;;;;;6.05;2.65;;;-8.10;99.90;;;;;;5058653;28;20590;-74
2022/01/02 06:05:03;;;;;;;6.85;2.10;;;-8.00;99.90;;;;;;5043554;28;20098;-74
2022/01/02 06:07:49;;;;;;;3.92;2.40;;;-8.00;99.90;;;;;;5043893;28;20587;-74
2022/01/02 06:10:35;;;;;;;3.90;2.30;;;-8.00;99.90;;;;;;5030797;28;20047;-76
2022/01/02 06:13:22;;;;;;;5.47;2.25;;;-7.90;99.90;;;;;;5058377;28;20421;-78
2022/01/02 06:16:12;;;;;;;5.60;2.28;;;-7.90;99.90;;;;;;5057554;28;20060;-75
2022/01/02 06:18:57;;;;;;;7.40;2.28;;;-7.80;99.90;;;;;;5019619;28;20064;-74
2022/01/02 06:21:44;;;;;;;8.30;2.20;;;-7.80;99.90;;;;;;5030356;28;20119;-74
2022/01/02 06:24:30;;;;;;;7.90;2.70;;;-7.70;99.90;;;;;;5036246;28;20139;-75
2022/01/02 06:27:17;;;;;;;4.28;2.00;;;-7.70;99.90;;;;;;5043574;28;20056;-73
2022/01/02 06:30:05;;;;;;;3.83;1.70;;;-7.60;99.90;;;;;;5043999;28;20060;-74
2022/01/02 06:32:57;;;;;;;3.15;2.22;;;-7.50;99.90;;;;;;5043310;28;20057;-73
2022/01/02 06:35:47;;;;;;;7.32;2.65;;;-7.40;99.90;;;;;;5057619;28;20071;-74
2022/01/02 06:38:34;;;;;;;7.22;3.15;;;-7.30;99.90;;;;;;5056145;28;20429;-74
2022/01/02 06:41:20;;;;;;;3.60;2.88;;;-7.30;99.90;;;;;;5029886;28;20453;-75
2022/01/02 06:44:07;;;;;;;30.05;3.75;;;-7.30;99.90;;;;;;5057949;28;20060;-75
2022/01/02 06:46:53;;;;;;;5.00;2.38;;;-7.20;99.90;;;;;;5043010;28;20184;-72
2022/01/02 06:49:42;;;;;;;7.95;2.60;;;-7.20;99.90;;;;;;5057351;28;20045;-75
2022/01/02 06:52:28;;;;;;;5.35;2.50;;;-7.10;99.90;;;;;;5031046;28;20496;-77
2022/01/02 06:55:15;;;;;;;5.95;2.50;;;-7.00;99.90;;;;;;5045565;28;20599;-77
2022/01/02 06:58:06;;;;;;;6.32;2.45;;;-6.90;99.90;;;;;;5033861;28;20056;-76
2022/01/02 07:00:53;;;;;;;4.82;2.75;;;-6.90;99.90;;;;;;5032851;28;20055;-78
2022/01/02 07:03:40;;;;;;;6.20;2.42;;;-6.80;99.90;;;;;;5061177;28;20107;-76
2022/01/02 07:06:27;;;;;;;5.80;3.28;;;-6.80;99.90;;;;;;5046754;28;20052;-76
2022/01/02 07:09:14;;;;;;;7.97;2.97;;;-6.70;99.90;;;;;;5061936;28;20053;-76
2022/01/02 07:12:01;;;;;;;6.05;2.15;;;-6.70;99.90;;;;;;5033308;28;20072;-82
2022/01/02 07:14:47;;;;;;;7.57;2.40;;;-6.60;99.90;;;;;;5033628;28;20155;-83
2022/01/02 07:17:34;;;;;;;4.13;2.28;;;-6.60;99.90;;;;;;5048329;28;20060;-77
2022/01/02 07:20:19;;;;;;;5.25;2.67;;;-6.60;99.90;;;;;;5034064;28;20155;-77
2022/01/02 07:23:07;;;;;;;6.18;2.70;;;-6.60;99.90;;;;;;5033977;28;20056;-76
2022/01/02 07:25:54;;;;;;;6.28;2.85;;;-6.50;99.90;;;;;;5032747;28;20064;-76
2022/01/02 07:28:40;;;;;;;4.80;2.67;;;-6.50;99.90;;;;;;5061497;28;20049;-76
2022/01/02 07:31:26;;;;;;;8.18;3.22;;;-6.50;99.90;;;;;;5040209;28;20048;-76
2022/01/02 07:34:11;;;;;;;4.15;3.03;;;-6.40;99.90;;;;;;5036096;28;20122;-75
2022/01/02 07:36:58;;;;;;;6.47;2.22;;;-6.30;99.90;;;;;;5033716;28;20147;-76
2022/01/02 07:39:48;;;;;;;3.85;2.80;;;-6.30;99.90;;;;;;5032763;28;20060;-75
2022/01/02 07:42:34;;;;;;;4.05;2.65;;;-6.20;99.90;;;;;;5035262;28;20053;-84
2022/01/02 07:45:26;;;;;;;4.10;3.10;;;-6.10;99.90;;;;;;5032034;28;20191;-84
2022/01/02 07:48:13;;;;;;;5.35;3.25;;;-6.00;99.90;;;;;;5034133;28;20620;-84
2022/01/02 07:50:59;;;;;;;4.07;2.88;;;-6.00;99.90;;;;;;5031988;28;20057;-83
2022/01/02 07:53:45;;;;;;;6.32;2.70;;;-5.90;99.90;;;;;;5032105;28;20056;-76
2022/01/02 07:56:33;;;;;;;4.45;2.80;;;-5.70;99.90;;;;;;5032719;28;20080;-76
2022/01/02 07:59:18;;;;;;;5.03;3.72;;;-5.70;99.90;;;;;;5033433;28;20425;-78
2022/01/02 08:02:05;;;;;;;9.57;4.88;;;-5.80;99.90;;;;;;5032213;28;20088;-76
2022/01/02 08:04:51;;;;;;;8.50;4.15;;;-5.80;99.90;;;;;;5033083;28;20508;-78
2022/01/02 08:07:39;;;;;;;8.27;3.60;;;-5.80;99.90;;;;;;5033093;28;20052;-77
2022/01/02 08:10:25;;;;;;;5.10;2.70;;;-5.70;99.90;;;;;;5032745;28;20064;-77
2022/01/02 08:13:12;;;;;;;7.95;3.40;;;-5.70;99.90;;;;;;5031585;28;20413;-77
2022/01/02 08:15:58;;;;;;;6.97;3.42;;;-5.70;99.90;;;;;;5032866;28;20328;-77
2022/01/02 08:18:45;;;;;;;11.35;3.13;;;-5.70;99.90;;;;;;5031406;28;20147;-78
2022/01/02 08:21:31;;;;;;;6.43;2.95;;;-5.80;99.90;;;;;;5026196;28;20052;-78
2022/01/02 08:24:18;;;;;;;3.15;2.55;;;-5.70;99.90;;;;;;5032657;28;20053;-85
2022/01/02 08:27:04;;;;;;;5.43;2.55;;;-5.70;99.90;;;;;;5034051;28;20595;-84
2022/01/02 08:29:54;;;;;;;10.50;3.28;;;-5.60;99.90;;;;;;5032491;28;20168;-88
2022/01/02 08:32:42;;;;;;;6.18;3.17;;;-5.60;99.90;;;;;;5060466;28;20159;-86
2022/01/02 08:35:28;;;;;;;5.70;3.78;;;-5.50;99.90;;;;;;5031992;28;20059;-89
2022/01/02 08:38:14;;;;;;;5.95;2.58;;;-5.50;99.90;;;;;;5049045;28;20064;-85
2022/01/02 08:41:01;;;;;;;4.57;3.08;;;-5.40;99.90;;;;;;5031353;28;20122;-87
2022/01/02 08:43:47;;;;;;;6.32;3.03;;;-5.30;99.90;;;;;;5027104;28;20061;-83
2022/01/02 08:46:35;;;;;;;5.22;3.30;;;-5.30;99.90;;;;;;5031759;28;20126;-84
2022/01/02 08:49:21;;;;;;;7.13;4.10;;;-5.30;99.90;;;;;;5030885;28;20060;-83
2022/01/02 08:52:07;;;;;;;7.30;3.17;;;-5.30;99.90;;;;;;5033965;28;20056;-84
2022/01/02 08:54:53;;;;;;;8.05;4.45;;;-5.20;99.90;;;;;;5045305;28;20061;-80
2022/01/02 08:57:39;;;;;;;5.43;3.38;;;-5.20;99.90;;;;;;5012632;28;20657;-82
2022/01/02 09:00:25;;;;;;;9.38;4.20;;;-5.10;99.90;;;;;;5025433;28;20946;-86
2022/01/02 09:03:14;;;;;;;5.78;3.47;;;-5.10;99.90;;;;;;5029969;28;20060;-83
2022/01/02 09:05:59;;;;;;;5.45;3.17;;;-5.00;99.90;;;;;;5031129;28;20418;-84
2022/01/02 09:08:46;;;;;;;8.70;3.50;;;-4.90;99.90;;;;;;5031266;28;20160;-84
2022/01/02 09:11:32;;;;;;;6.85;3.30;;;-4.90;99.90;;;;;;5031362;28;20188;-85
2022/01/02 09:14:18;;;;;;;9.75;5.10;;;-4.90;99.90;;;;;;5031822;28;20135;-83
2022/01/02 09:17:05;;;;;;;8.98;3.55;;;-4.90;99.90;;;;;;5031082;28;20064;-83
2022/01/02 09:19:52;;;;;;;6.97;3.83;;;-4.90;99.90;;;;;;5031102;28;20182;-82
2022/01/02 09:22:39;;;;;;;9.13;3.40;;;-4.80;99.90;;;;;;5012447;28;20123;-84
2022/01/02 09:25:25;;;;;;;7.45;4.25;;;-4.80;99.90;;;;;;5011667;28;20172;-82
2022/01/02 09:28:12;;;;;;;6.53;3.85;;;-4.80;99.90;;;;;;5047836;28;20060;-82
2022/01/02 09:30:58;;;;;;;7.85;4.28;;;-4.80;99.90;;;;;;5031561;28;20088;-83
2022/01/02 09:33:44;;;;;;;3.75;3.22;;;-4.80;99.90;;;;;;5031455;28;20060;-81
2022/01/02 09:36:32;;;;;;;5.60;3.95;;;-4.80;99.90;;;;;;5031270;28;20541;-82
2022/01/02 09:39:18;;;;;;;6.90;4.15;;;-4.80;99.90;;;;;;5031633;28;20076;-83
2022/01/02 09:42:04;;;;;;;7.70;4.18;;;-4.80;99.90;;;;;;5030466;28;20414;-83
2022/01/02 09:44:50;;;;;;;7.28;3.75;;;-4.70;99.90;;;;;;5011229;28;20424;-82
2022/01/02 09:47:38;;;;;;;7.72;3.17;;;-4.70;99.90;;;;;;5022899;28;20099;-83
2022/01/02 09:50:24;;;;;;;9.70;4.03;;;-4.70;99.90;;;;;;5044495;28;20056;-82
2022/01/02 09:53:12;;;;;;;12.15;4.90;;;-4.70;99.90;;;;;;5030698;28;20587;-82
2022/01/02 09:55:40;;;;;;;8.98;3.63;;;-4.70;99.90;;;;;;5030880;28;20099;-81
2022/01/02 09:58:11;;;;;;;12.48;3.88;;;-4.70;99.90;;;;;;5030622;28;20041;-80
2022/01/02 10:00:40;;;;;;;9.65;3.78;;;-4.60;99.90;;;;;;5030881;28;20049;-83
2022/01/02 10:03:10;;;;;;;7.55;4.50;;;-4.60;99.90;;;;;;5029230;28;20049;-82
2022/01/02 10:05:59;;;;;;;8.55;4.60;;;-4.60;99.90;;;;;;5031268;28;20160;-83
2022/01/02 10:08:30;;;;;;;8.65;3.92;;;-4.50;99.90;;;;;;5027089;28;20049;-82
2022/01/02 10:11:04;;;;;;;6.22;3.55;;;-4.50;99.90;;;;;;5030126;28;20054;-83
2022/01/02 10:13:46;;;;;;;11.65;4.88;;;-4.50;99.90;;;;;;5028041;28;20060;-82
2022/01/02 10:16:39;;;;;;;7.25;4.70;;;-4.50;99.90;;;;;;5029248;28;20573;-81
2022/01/02 10:19:19;;;;;;;10.13;4.97;;;-4.40;99.90;;;;;;5042752;28;20441;-82
2022/01/02 10:21:55;;;;;;;9.93;4.85;;;-4.40;99.90;;;;;;5026499;28;20103;-78
2022/01/02 10:24:27;;;;;;;10.23;5.05;;;-4.40;99.90;;;;;;5037364;28;20133;-83
2022/01/02 10:27:13;;;;;;;15.90;6.30;;;-4.40;99.90;;;;;;5031954;28;20072;-78
2022/01/02 10:29:48;;;;;;;13.80;5.28;;;-4.30;99.90;;;;;;4996351;28;20081;-77
2022/01/02 10:32:33;;;;;;;12.02;5.53;;;-4.30;99.90;;;;;;5040400;28;20060;-78
2022/01/02 10:35:16;;;;;;;9.65;4.97;;;-4.30;99.90;;;;;;5030544;28;20053;-77
2022/01/02 10:37:49;;;;;;;18.92;6.57;;;-4.30;99.90;;;;;;5029251;28;20061;-76
2022/01/02 10:40:41;;;;;;;16.10;7.28;;;-4.20;99.90;;;;;;5044952;28;20483;-76
2022/01/02 10:43:12;;;;;;;30.52;9.95;;;-4.20;99.90;;;;;;5045605;28;20045;-78
2022/01/02 10:45:43;;;;;;;35.53;13.27;;;-4.20;99.90;;;;;;5029742;28;20042;-77
2022/01/02 10:48:15;;;;;;;25.80;12.02;;;-4.10;99.90;;;;;;5014584;28;20123;-79
2022/01/02 10:51:00;;;;;;;36.60;12.35;;;-4.00;99.90;;;;;;5020112;28;20165;-77
2022/01/02 10:53:29;;;;;;;44.63;14.63;;;-3.90;99.90;;;;;;5029515;28;20055;-77
2022/01/02 10:55:58;;;;;;;46.08;15.68;;;-3.80;99.90;;;;;;5043952;28;20505;-77
2022/01/02 10:58:27;;;;;;;43.35;16.00;;;-3.70;99.90;;;;;;5030149;28;20077;-87
2022/01/02 11:01:02;;;;;;;48.00;15.80;;;-3.60;99.90;;;;;;5028626;28;20049;-81
2022/01/02 11:03:39;;;;;;;41.55;15.70;;;-3.50;99.90;;;;;;5029070;28;20053;-81
2022/01/02 11:06:08;;;;;;;40.47;16.08;;;-3.40;99.90;;;;;;5030073;28;20057;-82
2022/01/02 11:08:38;;;;;;;19.83;9.20;;;-3.30;99.90;;;;;;5030447;28;20092;-81
2022/01/02 11:11:10;;;;;;;38.45;14.45;;;-3.20;99.90;;;;;;5029712;28;20107;-85
2022/01/02 11:13:41;;;;;;;45.50;16.02;;;-3.20;99.90;;;;;;5029393;28;20050;-82
2022/01/02 11:16:09;;;;;;;58.35;22.77;;;-3.20;99.90;;;;;;5024186;28;20054;-82
2022/01/02 11:18:36;;;;;;;53.83;21.85;;;-3.20;99.90;;;;;;5029792;28;20096;-84
2022/01/02 11:21:05;;;;;;;48.85;19.23;;;-3.20;99.90;;;;;;5028164;28;20442;-85
2022/01/02 11:23:45;;;;;;;72.45;29.55;;;-3.20;99.90;;;;;;5029006;28;20077;-85
2022/01/02 11:26:37;;;;;;;84.03;30.08;;;-3.10;99.90;;;;;;5020859;28;20041;-84
2022/01/02 11:29:05;;;;;;;78.63;29.63;;;-3.10;99.90;;;;;;5030102;28;20422;-85
2022/01/02 11:31:36;;;;;;;73.55;28.83;;;-3.10;99.90;;;;;;5028836;28;20049;-87
2022/01/02 11:34:24;;;;;;;70.57;28.48;;;-3.10;99.90;;;;;;5046267;28;20053;-87
2022/01/02 11:36:53;;;;;;;57.97;24.83;;;-3.20;99.90;;;;;;5030423;28;20528;-85
2022/01/02 11:39:21;;;;;;;34.03;15.55;;;-3.20;99.90;;;;;;5045007;28;20083;-87
2022/01/02 11:41:52;;;;;;;21.10;10.25;;;-3.30;99.90;;;;;;5046473;28;20049;-82
2022/01/02 11:44:21;;;;;;;24.70;11.43;;;-3.40;99.90;;;;;;5032403;28;20057;-83
2022/01/02 11:46:52;;;;;;;22.65;11.10;;;-3.40;99.90;;;;;;5031442;28;20065;-85
2022/01/02 11:49:29;;;;;;;26.52;11.43;;;-3.50;99.90;;;;;;5036184;28;20111;-85
2022/01/02 11:52:26;;;;;;;25.83;11.23;;;-3.50;99.90;;;;;;5036447;28;20433;-77
2022/01/02 11:54:57;;;;;;;23.63;11.63;;;-3.50;99.90;;;;;;5032112;28;20060;-76
2022/01/02 11:57:47;;;;;;;29.80;17.27;;;-3.50;99.90;;;;;;5005979;28;20548;-77
2022/01/02 12:00:46;;;;;;;28.65;14.85;;;-3.40;99.90;;;;;;5032285;28;20056;-78
2022/01/02 12:03:49;;;;;;;29.67;15.23;;;-3.40;99.90;;;;;;4999034;28;20065;-77
2022/01/02 12:06:32;;;;;;;30.33;15.02;;;-3.40;99.90;;;;;;5030977;28;20514;-77
2022/01/02 12:09:00;;;;;;;37.38;17.00;;;-3.40;99.90;;;;;;5045605;28;20049;-79
2022/01/02 12:11:48;;;;;;;30.83;14.82;;;-3.40;99.90;;;;;;5030900;28;20041;-79
2022/01/02 12:14:23;;;;;;;31.38;15.02;;;-3.40;99.90;;;;;;5020135;28;20391;-78
2022/01/02 12:17:01;;;;;;;35.25;17.02;;;-3.40;99.90;;;;;;5032383;28;20053;-77
2022/01/02 12:19:59;;;;;;;39.00;19.65;;;-3.40;99.90;;;;;;5032333;28;20422;-76
2022/01/02 12:22:48;;;;;;;35.47;18.88;;;-3.40;99.90;;;;;;5031697;28;20057;-77
2022/01/02 12:25:21;;;;;;;33.85;17.75;;;-3.40;99.90;;;;;;5031321;28;20085;-76
2022/01/02 12:27:59;;;;;;;29.10;16.08;;;-3.40;99.90;;;;;;5035912;28;20163;-85
2022/01/02 12:30:28;;;;;;;21.05;10.55;;;-3.40;99.90;;;;;;5068184;28;20460;-85
2022/01/02 12:32:56;;;;;;;28.27;15.95;;;-3.40;99.90;;;;;;5036628;28;20095;-87
2022/01/02 12:35:23;;;;;;;19.42;10.55;;;-3.30;99.90;;;;;;5034764;28;20045;-76
2022/01/02 12:38:04;;;;;;;21.27;11.30;;;-3.20;99.90;;;;;;5022018;28;20053;-79
2022/01/02 12:40:39;;;;;;;23.50;11.50;;;-3.20;99.90;;;;;;5015776;28;20111;-78
2022/01/02 12:43:08;;;;;;;19.70;12.30;;;-3.20;99.90;;;;;;5032372;28;20057;-74
2022/01/02 12:45:37;;;;;;;19.33;11.25;;;-3.20;99.90;;;;;;5031759;28;20076;-76
2022/01/02 12:48:05;;;;;;;19.77;9.82;;;-3.20;99.90;;;;;;5062523;28;20049;-74
2022/01/02 12:50:36;;;;;;;25.13;12.38;;;-3.20;99.90;;;;;;5031819;28;20061;-76
2022/01/02 12:53:05;;;;;;;20.73;12.57;;;-3.30;99.90;;;;;;5030952;28;20046;-84
2022/01/02 12:55:33;;;;;;;22.30;12.40;;;-3.30;99.90;;;;;;5031894;28;20131;-86
2022/01/02 12:58:09;;;;;;;19.60;10.95;;;-3.30;99.90;;;;;;5028525;28;20152;-87
2022/01/02 13:00:38;;;;;;;21.17;11.90;;;-3.40;99.90;;;;;;5032372;28;20568;-85
2022/01/02 13:03:06;;;;;;;24.40;12.02;;;-3.40;99.90;;;;;;5065184;28;20053;-84
2022/01/02 13:05:33;;;;;;;18.23;11.35;;;-3.50;99.90;;;;;;5030082;28;20113;-84
2022/01/02 13:08:02;;;;;;;21.13;11.70;;;-3.50;99.90;;;;;;5031786;28;20049;-84
2022/01/02 13:10:30;;;;;;;21.25;11.45;;;-3.50;99.90;;;;;;5032146;28;20049;-89
2022/01/02 13:12:58;;;;;;;30.23;15.15;;;-3.50;99.90;;;;;;5048908;28;20053;-88
2022/01/02 13:15:27;;;;;;;42.50;19.15;;;-3.60;99.90;;;;;;5063537;28;20537;-85
2022/01/02 13:17:58;;;;;;;33.90;16.73;;;-3.60;99.90;;;;;;5033244;28;20057;-85
2022/01/02 13:20:43;;;;;;;44.50;18.45;;;-3.60;99.90;;;;;;5031075;28;20053;-77
2022/01/02 13:23:10;;;;;;;35.88;19.20;;;-3.60;99.90;;;;;;5030770;28;20103;-76
2022/01/02 13:25:40;;;;;;;37.50;17.35;;;-3.70;99.90;;;;;;5031332;28;20072;-75
2022/01/02 13:28:10;;;;;;;31.33;14.52;;;-3.70;99.90;;;;;;5031428;28;20515;-75
2022/01/02 13:30:41;;;;;;;36.58;18.05;;;-3.70;99.90;;;;;;5029849;28;20104;-80
2022/01/02 13:33:23;;;;;;;36.72;17.90;;;-3.70;99.90;;;;;;5046403;28;20087;-78
2022/01/02 13:35:52;;;;;;;36.70;17.55;;;-3.70;99.90;;;;;;5031121;28;20049;-75
2022/01/02 13:38:20;;;;;;;25.50;13.48;;;-3.80;99.90;;;;;;5031331;28;20096;-74
2022/01/02 13:40:49;;;;;;;22.17;12.40;;;-3.70;99.90;;;;;;5026230;28;20050;-74
2022/01/02 13:43:18;;;;;;;27.30;13.20;;;-3.70;99.90;;;;;;5025420;28;20072;-76
2022/01/02 13:45:47;;;;;;;26.10;12.40;;;-3.80;99.90;;;;;;5030819;28;20061;-76
2022/01/02 13:48:17;;;;;;;37.72;19.15;;;-3.80;99.90;;;;;;5031569;28;20497;-76
2022/01/02 13:50:50;;;;;;;29.50;15.73;;;-3.80;99.90;;;;;;5045996;28;20052;-75
2022/01/02 13:53:21;;;;;;;37.65;15.93;;;-3.80;99.90;;;;;;5031223;28;20099;-76
2022/01/02 13:55:51;;;;;;;47.53;18.95;;;-3.90;99.90;;;;;;5030723;28;20460;-77
2022/01/02 13:58:24;;;;;;;29.90;14.20;;;-3.90;99.90;;;;;;5031024;28;20057;-75
2022/01/02 14:00:55;;;;;;;46.55;19.77;;;-4.00;99.90;;;;;;5025229;28;20598;-78
2022/01/02 14:03:31;;;;;;;39.95;19.63;;;-4.00;99.90;;;;;;5029310;28;20077;-77
2022/01/02 14:06:02;;;;;;;32.60;15.00;;;-4.00;99.90;;;;;;5024596;28;20069;-80